createdAt,value
2023-05-12T00:00:15.144Z,2.07
2023-05-12T00:02:44.733Z,2.53
2023-05-12T00:05:11.678Z,5.73
2023-05-12T00:07:38.532Z,3.43
2023-05-12T00:10:05.797Z,2.10
2023-05-12T00:12:33.154Z,2.10
2023-05-12T00:15:01.296Z,3.00
2023-05-12T00:17:28.855Z,2.07
2023-05-12T00:19:55.863Z,2.53
2023-05-12T00:22:22.781Z,3.17
2023-05-12T00:24:49.763Z,1.77
2023-05-12T00:27:16.607Z,1.47
2023-05-12T00:29:43.553Z,2.13
2023-05-12T00:32:10.620Z,4.23
2023-05-12T00:34:37.635Z,5.67
2023-05-12T00:37:04.994Z,3.80
2023-05-12T00:39:31.975Z,4.20
2023-05-12T00:41:59.984Z,4.03
2023-05-12T00:44:27.432Z,3.47
2023-05-12T00:46:55.398Z,5.40
2023-05-12T00:49:22.425Z,4.17
2023-05-12T00:51:49.640Z,4.50
2023-05-12T00:54:17.353Z,6.47
2023-05-12T00:56:44.332Z,6.37
2023-05-12T00:59:11.147Z,6.17
2023-05-12T01:01:40.976Z,6.87
2023-05-12T01:04:08.553Z,6.17
2023-05-12T01:06:36.135Z,8.03
2023-05-12T01:09:04.022Z,6.10
2023-05-12T01:11:30.915Z,6.30
2023-05-12T01:13:58.004Z,7.00
2023-05-12T01:16:31.568Z,6.07
2023-05-12T01:19:00.257Z,7.37
2023-05-12T01:21:27.529Z,4.97
2023-05-12T01:23:59.532Z,9.30
2023-05-12T01:26:30.085Z,7.97
2023-05-12T01:28:57.903Z,7.57
2023-05-12T01:31:26.836Z,9.47
2023-05-12T01:33:53.874Z,7.60
2023-05-12T01:36:20.833Z,12.67
2023-05-12T01:38:47.923Z,11.73
2023-05-12T01:41:14.798Z,14.10
2023-05-12T01:43:41.683Z,11.87
2023-05-12T01:46:10.896Z,11.57
2023-05-12T01:48:39.411Z,13.23
2023-05-12T01:51:08.835Z,9.17
2023-05-12T01:53:36.492Z,9.47
2023-05-12T01:56:03.795Z,9.07
2023-05-12T01:58:33.133Z,12.03
2023-05-12T02:01:00.677Z,9.77
2023-05-12T02:03:28.435Z,8.67
2023-05-12T02:05:57.214Z,8.50
2023-05-12T02:08:24.326Z,11.90
2023-05-12T02:10:51.240Z,10.53
2023-05-12T02:13:18.120Z,12.00
2023-05-12T02:15:45.655Z,13.33
2023-05-12T02:18:12.588Z,10.73
2023-05-12T02:20:39.646Z,13.20
2023-05-12T02:23:06.640Z,11.10
2023-05-12T02:25:33.864Z,8.77
2023-05-12T02:28:00.761Z,9.80
2023-05-12T02:30:27.630Z,13.33
2023-05-12T02:32:54.511Z,12.87
2023-05-12T02:35:21.570Z,11.87
2023-05-12T02:37:48.794Z,13.07
2023-05-12T02:40:16.539Z,11.23
2023-05-12T02:42:45.604Z,11.97
2023-05-12T02:45:13.206Z,12.43
2023-05-12T02:47:40.660Z,12.70
2023-05-12T02:50:09.791Z,11.97
2023-05-12T02:52:37.229Z,13.33
2023-05-12T02:55:04.921Z,11.20
2023-05-12T02:57:34.566Z,14.40
2023-05-12T03:00:04.231Z,14.07
2023-05-12T03:02:32.214Z,13.23
2023-05-12T03:04:59.608Z,13.20
2023-05-12T03:07:27.108Z,13.07
2023-05-12T03:09:54.858Z,15.30
2023-05-12T03:12:22.556Z,16.50
2023-05-12T03:14:49.694Z,14.83
2023-05-12T03:17:16.623Z,15.07
2023-05-12T03:19:43.607Z,15.47
2023-05-12T03:22:10.522Z,19.60
2023-05-12T03:24:37.455Z,19.17
2023-05-12T03:27:05.662Z,17.43
2023-05-12T03:29:33.110Z,16.57
2023-05-12T03:31:59.986Z,23.67
2023-05-12T03:34:26.916Z,19.33
2023-05-12T03:36:55.551Z,19.27
2023-05-12T03:39:24.976Z,20.87
2023-05-12T03:41:52.872Z,18.33
2023-05-12T03:44:20.164Z,17.73
2023-05-12T03:46:47.134Z,20.27
2023-05-12T03:49:14.004Z,21.43
2023-05-12T03:51:41.273Z,16.93
2023-05-12T03:54:08.310Z,22.27
2023-05-12T03:56:35.734Z,23.83
2023-05-12T03:59:04.098Z,20.23
2023-05-12T04:01:31.073Z,21.97
2023-05-12T04:03:58.432Z,19.63
2023-05-12T04:06:25.457Z,21.03
2023-05-12T04:08:52.523Z,22.23
2023-05-12T04:11:19.375Z,22.20
2023-05-12T04:13:46.217Z,19.03
2023-05-12T04:16:14.277Z,22.93
2023-05-12T04:18:41.252Z,20.93
2023-05-12T04:21:08.190Z,23.90
2023-05-12T04:23:35.092Z,20.60
2023-05-12T04:26:05.357Z,22.57
2023-05-12T04:28:33.130Z,21.23
2023-05-12T04:31:06.152Z,20.83
2023-05-12T04:33:34.386Z,23.87
2023-05-12T04:36:02.695Z,20.03
2023-05-12T04:38:29.758Z,20.30
2023-05-12T04:41:00.729Z,20.50
2023-05-12T04:46:00.216Z,25.47
2023-05-12T04:48:29.302Z,21.37
2023-05-12T04:50:59.959Z,23.87
2023-05-12T04:53:34.585Z,24.33
2023-05-12T04:56:02.041Z,22.93
2023-05-12T04:58:32.103Z,21.73
2023-05-12T05:00:59.965Z,22.27
2023-05-12T05:03:27.129Z,22.27
2023-05-12T05:05:54.964Z,23.03
2023-05-12T05:08:21.923Z,22.73
2023-05-12T05:10:48.850Z,26.07
2023-05-12T05:13:16.609Z,16.27
2023-05-12T05:15:54.605Z,24.93
2023-05-12T05:18:24.410Z,23.33
2023-05-12T05:20:58.346Z,24.40
2023-05-12T05:23:26.743Z,21.33
2023-05-12T05:25:54.236Z,21.13
2023-05-12T05:28:21.167Z,23.67
2023-05-12T05:30:48.161Z,24.10
2023-05-12T05:33:15.458Z,22.43
2023-05-12T05:35:42.608Z,19.27
2023-05-12T05:38:10.966Z,22.50
2023-05-12T05:40:51.658Z,20.47
2023-05-12T05:43:19.735Z,20.10
2023-05-12T05:45:49.453Z,21.27
2023-05-12T05:48:16.582Z,23.80
2023-05-12T05:50:44.092Z,20.53
2023-05-12T05:53:10.987Z,25.27
2023-05-12T05:55:37.896Z,17.20
2023-05-12T05:58:05.449Z,20.87
2023-05-12T06:00:33.081Z,19.07
2023-05-12T06:03:00.139Z,19.03
2023-05-12T06:05:27.244Z,23.30
2023-05-12T06:07:54.168Z,21.20
2023-05-12T06:10:21.815Z,19.47
2023-05-12T06:12:50.327Z,19.07
2023-05-12T06:15:17.736Z,25.23
2023-05-12T06:17:44.949Z,16.43
2023-05-12T06:20:13.496Z,21.97
2023-05-12T06:22:42.404Z,17.00
2023-05-12T06:25:10.372Z,20.13
2023-05-12T06:27:38.622Z,20.73
2023-05-12T06:30:06.765Z,17.67
2023-05-12T06:32:34.001Z,21.70
2023-05-12T06:35:01.128Z,22.50
2023-05-12T06:37:28.402Z,16.50
2023-05-12T06:39:55.290Z,18.30
2023-05-12T06:42:24.444Z,22.30
2023-05-12T06:44:52.354Z,18.77
2023-05-12T06:47:21.189Z,20.80
2023-05-12T06:49:50.092Z,18.00
2023-05-12T06:52:17.448Z,18.07
2023-05-12T06:54:44.429Z,17.50
2023-05-12T06:57:11.296Z,18.47
2023-05-12T06:59:38.189Z,18.73
2023-05-12T07:02:05.638Z,19.87
2023-05-12T07:04:33.077Z,16.97
2023-05-12T07:06:59.965Z,19.37
2023-05-12T07:09:26.911Z,21.50
2023-05-12T07:11:54.371Z,20.50
2023-05-12T07:14:21.182Z,20.37
2023-05-12T07:16:48.066Z,18.53
2023-05-12T07:19:15.236Z,14.83
2023-05-12T07:21:42.208Z,18.93
2023-05-12T07:24:09.174Z,19.40
2023-05-12T07:26:36.101Z,19.07
2023-05-12T07:29:04.082Z,20.93
2023-05-12T07:31:31.599Z,19.27
2023-05-12T07:33:58.899Z,19.87
2023-05-12T07:36:25.916Z,18.73
2023-05-12T07:38:52.802Z,21.37
2023-05-12T07:41:19.779Z,18.53
2023-05-12T07:43:46.649Z,19.53
2023-05-12T07:46:13.681Z,19.00
2023-05-12T07:48:40.751Z,23.07
2023-05-12T07:51:12.630Z,20.40
2023-05-12T07:53:44.827Z,22.37
2023-05-12T07:56:11.732Z,22.60
2023-05-12T07:58:38.645Z,18.73
2023-05-12T08:01:06.905Z,18.33
2023-05-12T08:03:35.127Z,17.73
2023-05-12T08:06:03.570Z,17.33
2023-05-12T08:08:30.464Z,18.50
2023-05-12T08:10:57.356Z,20.77
2023-05-12T08:13:24.344Z,18.03
2023-05-12T08:15:51.728Z,20.73
2023-05-12T08:18:18.712Z,20.37
2023-05-12T08:20:45.994Z,19.70
2023-05-12T08:23:13.014Z,21.20
2023-05-12T08:25:41.249Z,18.70
2023-05-12T08:28:08.120Z,19.37
2023-05-12T08:30:36.885Z,19.83
2023-05-12T08:33:04.482Z,19.87
2023-05-12T08:35:32.156Z,20.23
2023-05-12T08:37:59.744Z,22.57
2023-05-12T08:40:30.784Z,19.80
2023-05-12T08:43:22.735Z,21.90
2023-05-12T08:45:50.066Z,19.27
2023-05-12T08:48:20.086Z,25.10
2023-05-12T08:50:50.906Z,19.33
2023-05-12T08:53:22.241Z,20.07
2023-05-12T08:57:08.297Z,20.87
2023-05-12T08:58:41.770Z,20.90
2023-05-12T09:01:11.928Z,19.50
2023-05-12T09:03:39.150Z,19.93
2023-05-12T09:06:06.866Z,19.83
2023-05-12T09:08:36.094Z,22.50
2023-05-12T09:11:03.797Z,20.23
2023-05-12T09:13:40.342Z,20.10
2023-05-12T09:16:12.157Z,22.40
2023-05-12T09:18:53.004Z,17.30
2023-05-12T09:21:21.107Z,20.33
2023-05-12T09:23:57.109Z,18.87
2023-05-12T09:26:25.953Z,18.50
2023-05-12T09:28:54.555Z,20.70
2023-05-12T09:31:23.223Z,19.27
2023-05-12T09:33:53.113Z,20.73
2023-05-12T09:36:24.569Z,21.30
2023-05-12T09:39:07.229Z,18.90
2023-05-12T09:41:41.984Z,20.40
2023-05-12T09:44:10.438Z,16.70
2023-05-12T09:46:39.833Z,17.47
2023-05-12T09:49:07.028Z,16.07
2023-05-12T09:51:34.109Z,16.07
2023-05-12T09:54:01.407Z,16.27
2023-05-12T09:56:29.906Z,13.50
2023-05-12T09:58:57.703Z,15.80
2023-05-12T10:01:25.749Z,12.50
2023-05-12T10:03:55.907Z,10.53
2023-05-12T10:06:32.598Z,13.40
2023-05-12T10:09:03.764Z,10.70
2023-05-12T10:11:31.559Z,14.10
2023-05-12T10:14:00.297Z,13.83
2023-05-12T10:16:30.563Z,13.63
2023-05-12T10:18:58.679Z,11.87
2023-05-12T10:21:26.231Z,8.93
2023-05-12T10:23:54.573Z,8.17
2023-05-12T10:26:23.359Z,10.47
2023-05-12T10:28:52.291Z,12.73
2023-05-12T10:31:20.340Z,10.27
2023-05-12T10:34:00.868Z,9.10
2023-05-12T10:36:28.805Z,9.93
2023-05-12T10:38:56.790Z,10.53
2023-05-12T10:41:31.565Z,11.67
2023-05-12T10:43:58.868Z,10.70
2023-05-12T10:46:27.261Z,10.30
2023-05-12T10:48:55.939Z,11.67
2023-05-12T10:51:28.509Z,14.87
2023-05-12T10:54:04.231Z,15.17
2023-05-12T10:56:43.647Z,17.00
2023-05-12T10:59:14.137Z,12.73
2023-05-12T11:01:43.101Z,16.00
2023-05-12T11:04:15.586Z,15.80
2023-05-12T11:06:45.205Z,14.07
2023-05-12T11:09:13.309Z,17.33
2023-05-12T11:11:40.690Z,11.70
2023-05-12T11:14:09.617Z,11.00
2023-05-12T11:16:43.319Z,10.67
2023-05-12T11:19:10.742Z,11.83
2023-05-12T11:21:38.630Z,10.20
2023-05-12T11:24:06.032Z,17.37
2023-05-12T11:26:34.471Z,10.17
2023-05-12T11:29:04.321Z,11.63
2023-05-12T11:31:31.273Z,10.77
2023-05-12T11:34:12.734Z,9.83
2023-05-12T11:36:42.875Z,8.20
2023-05-12T11:39:20.991Z,10.03
2023-05-12T11:41:50.161Z,8.40
2023-05-12T11:44:20.398Z,9.77
2023-05-12T11:46:55.217Z,8.97
2023-05-12T11:49:22.216Z,11.00
2023-05-12T11:51:51.918Z,10.73
2023-05-12T11:54:18.986Z,11.53
2023-05-12T11:56:53.315Z,14.43
2023-05-12T11:59:28.095Z,11.07
2023-05-12T12:01:55.299Z,10.77
2023-05-12T12:04:34.246Z,9.80
2023-05-12T12:07:01.646Z,11.23
2023-05-12T12:09:36.404Z,12.27
2023-05-12T12:12:05.207Z,12.37
2023-05-12T12:14:33.450Z,11.13
2023-05-12T12:17:00.578Z,11.67
2023-05-12T12:19:28.479Z,15.63
2023-05-12T12:21:56.399Z,11.13
2023-05-12T12:24:23.884Z,14.27
2023-05-12T12:26:51.214Z,12.00
2023-05-12T12:29:18.723Z,14.27
2023-05-12T12:31:45.945Z,11.23
2023-05-12T12:34:12.810Z,13.93
2023-05-12T12:36:39.676Z,15.30
2023-05-12T12:39:06.897Z,11.57
2023-05-12T12:41:34.440Z,10.83
2023-05-12T12:44:01.747Z,15.73
2023-05-12T12:46:28.600Z,10.73
2023-05-12T12:48:57.367Z,13.83
2023-05-12T12:51:26.859Z,13.03
2023-05-12T12:53:59.555Z,16.27
2023-05-12T12:56:26.491Z,14.53
2023-05-12T12:58:53.598Z,13.30
2023-05-12T13:01:20.655Z,10.57
2023-05-12T13:03:47.549Z,12.23
2023-05-12T13:06:14.472Z,12.37
2023-05-12T13:08:42.413Z,11.00
2023-05-12T13:11:09.832Z,11.33
2023-05-12T13:13:37.639Z,10.47
2023-05-12T13:16:04.958Z,11.50
2023-05-12T13:18:31.857Z,11.20
2023-05-12T13:20:59.507Z,11.77
2023-05-12T13:23:26.341Z,14.23
2023-05-12T13:25:53.382Z,10.97
2023-05-12T13:28:20.324Z,12.07
2023-05-12T13:30:47.226Z,13.57
2023-05-12T13:33:14.401Z,9.87
2023-05-12T13:35:41.368Z,11.23
2023-05-12T13:38:10.133Z,9.27
2023-05-12T13:40:37.513Z,12.77
2023-05-12T13:43:04.413Z,11.20
2023-05-12T13:45:31.489Z,10.20
2023-05-12T13:47:58.382Z,9.80
2023-05-12T13:50:25.398Z,10.97
2023-05-12T13:52:52.386Z,10.67
2023-05-12T13:55:21.704Z,9.27
2023-05-12T13:57:49.348Z,9.70
2023-05-12T14:00:17.396Z,9.20
2023-05-12T14:02:44.783Z,10.70
2023-05-12T14:05:12.047Z,7.47
2023-05-12T14:07:38.930Z,7.93
2023-05-12T14:10:06.491Z,8.60
2023-05-12T14:12:33.851Z,8.03
2023-05-12T14:15:15.737Z,9.97
2023-05-12T14:17:48.175Z,10.53
2023-05-12T14:20:15.258Z,8.67
2023-05-12T14:22:42.323Z,9.93
2023-05-12T14:25:09.520Z,8.00
2023-05-12T14:27:36.424Z,7.50
2023-05-12T14:30:04.260Z,5.47
2023-05-12T14:32:31.523Z,4.73
2023-05-12T14:34:58.443Z,4.03
2023-05-12T14:37:25.506Z,5.40
2023-05-12T14:39:55.276Z,4.47
2023-05-12T14:42:22.369Z,5.10
2023-05-12T14:44:49.289Z,4.30
2023-05-12T14:47:16.506Z,6.43
2023-05-12T14:49:45.492Z,5.20
2023-05-12T14:52:12.677Z,7.53
2023-05-12T14:54:39.560Z,5.30
2023-05-12T14:57:06.674Z,4.80
2023-05-12T14:59:33.994Z,6.93
2023-05-12T15:02:00.955Z,10.90
2023-05-12T15:04:27.990Z,4.23
2023-05-12T15:06:54.925Z,3.63
2023-05-12T15:09:21.758Z,5.53
2023-05-12T15:11:49.576Z,5.23
2023-05-12T15:14:16.398Z,6.47
2023-05-12T15:16:43.451Z,7.63
2023-05-12T15:19:10.561Z,6.53
2023-05-12T15:21:37.500Z,4.47
2023-05-12T15:24:04.538Z,3.43
2023-05-12T15:26:33.489Z,4.10
2023-05-12T15:29:01.846Z,4.83
2023-05-12T15:31:30.302Z,3.30
2023-05-12T15:33:57.701Z,6.53
2023-05-12T15:36:24.675Z,4.97
2023-05-12T15:38:51.494Z,5.63
2023-05-12T15:41:18.614Z,5.60
2023-05-12T15:43:45.999Z,5.47
2023-05-12T15:46:13.158Z,4.60
2023-05-12T15:48:40.227Z,7.47
2023-05-12T15:51:07.329Z,8.07
2023-05-12T15:53:34.883Z,4.67
2023-05-12T15:56:03.310Z,6.27
2023-05-12T15:58:30.852Z,6.73
2023-05-12T16:00:57.917Z,11.50
2023-05-12T16:03:24.984Z,6.80
2023-05-12T16:05:52.663Z,5.73
2023-05-12T16:08:20.450Z,8.80
2023-05-12T16:10:48.355Z,5.67
2023-05-12T16:13:15.377Z,5.03
2023-05-12T16:15:42.847Z,7.83
2023-05-12T16:18:11.277Z,5.33
2023-05-12T16:20:39.187Z,6.00
2023-05-12T16:23:06.266Z,5.60
2023-05-12T16:25:33.461Z,7.87
2023-05-12T16:28:00.486Z,6.23
2023-05-12T16:30:27.588Z,9.77
2023-05-12T16:32:54.489Z,7.40
2023-05-12T16:35:21.949Z,7.17
2023-05-12T16:37:49.249Z,7.57
2023-05-12T16:40:16.537Z,8.73
2023-05-12T16:42:43.455Z,8.63
2023-05-12T16:45:11.225Z,7.27
2023-05-12T16:47:38.370Z,8.80
2023-05-12T16:50:06.303Z,10.03
2023-05-12T16:52:34.073Z,9.93
2023-05-12T16:55:01.002Z,10.40
2023-05-12T16:57:28.030Z,10.90
2023-05-12T16:59:54.855Z,10.70
2023-05-12T17:02:22.220Z,11.87
2023-05-12T17:04:49.352Z,10.47
2023-05-12T17:07:16.308Z,8.40
2023-05-12T17:09:43.155Z,9.73
2023-05-12T17:12:10.903Z,10.80
2023-05-12T17:14:37.993Z,10.40
2023-05-12T17:17:05.123Z,11.30
2023-05-12T17:19:33.705Z,8.83
2023-05-12T17:22:01.302Z,11.07
2023-05-12T17:24:28.149Z,9.50
2023-05-12T17:26:55.048Z,8.23
2023-05-12T17:29:21.795Z,12.73
2023-05-12T17:31:48.790Z,8.03
2023-05-12T17:34:15.701Z,14.60
2023-05-12T17:36:42.558Z,9.30
2023-05-12T17:39:09.452Z,13.33
2023-05-12T17:41:36.315Z,9.53
2023-05-12T17:44:04.094Z,5.67
2023-05-12T17:46:31.232Z,9.57
2023-05-12T17:48:58.215Z,8.07
2023-05-12T17:51:25.271Z,11.50
2023-05-12T17:53:52.259Z,10.13
2023-05-12T17:56:19.145Z,7.23
2023-05-12T17:58:46.821Z,9.70
2023-05-12T18:01:13.851Z,7.27
2023-05-12T18:03:40.805Z,9.43
2023-05-12T18:06:12.685Z,9.00
2023-05-12T18:08:40.009Z,9.43
2023-05-12T18:11:06.835Z,9.97
2023-05-12T18:13:34.391Z,7.20
2023-05-12T18:16:01.438Z,7.37
2023-05-12T18:18:28.408Z,7.97
2023-05-12T18:20:55.252Z,7.90
2023-05-12T18:23:22.204Z,7.90
2023-05-12T18:25:49.340Z,7.03
2023-05-12T18:28:16.246Z,10.00
2023-05-12T18:30:43.256Z,10.00
2023-05-12T18:33:10.230Z,6.27
2023-05-12T18:35:37.421Z,13.07
2023-05-12T18:38:04.335Z,6.00
2023-05-12T18:40:31.579Z,7.37
2023-05-12T18:42:58.571Z,6.17
2023-05-12T18:45:25.555Z,8.10
2023-05-12T18:47:52.527Z,7.73
2023-05-12T18:50:19.542Z,6.83
2023-05-12T18:52:46.533Z,5.60
2023-05-12T18:55:13.452Z,8.60
2023-05-12T18:57:40.442Z,5.60
2023-05-12T19:00:09.867Z,6.90
2023-05-12T19:02:37.605Z,7.70
2023-05-12T19:05:04.847Z,5.47
2023-05-12T19:07:31.755Z,5.07
2023-05-12T19:09:58.737Z,5.27
2023-05-12T19:12:25.983Z,9.37
2023-05-12T19:14:53.130Z,5.93
2023-05-12T19:17:19.988Z,14.97
2023-05-12T19:19:46.906Z,5.03
2023-05-12T19:22:13.839Z,3.73
2023-05-12T19:24:42.026Z,4.07
2023-05-12T19:27:11.045Z,4.83
2023-05-12T19:29:38.252Z,5.80
2023-05-12T19:32:05.950Z,4.07
2023-05-12T19:34:32.957Z,4.13
2023-05-12T19:37:01.212Z,6.00
2023-05-12T19:39:28.187Z,4.80
2023-05-12T19:41:55.099Z,4.77
2023-05-12T19:44:22.194Z,5.37
2023-05-12T19:46:49.202Z,3.97
2023-05-12T19:49:16.137Z,5.60
2023-05-12T19:51:43.020Z,4.27
2023-05-12T19:54:10.260Z,6.60
2023-05-12T19:56:37.449Z,8.33
2023-05-12T19:59:04.314Z,7.07
2023-05-12T20:01:31.330Z,5.70
2023-05-12T20:03:58.278Z,3.87
2023-05-12T20:06:25.234Z,4.47
2023-05-12T20:08:52.661Z,4.67
2023-05-12T20:11:20.543Z,3.43
2023-05-12T20:13:47.717Z,3.77
2023-05-12T20:16:14.611Z,7.40
2023-05-12T20:18:41.591Z,6.47
2023-05-12T20:21:08.634Z,8.20
2023-05-12T20:23:35.652Z,6.20
2023-05-12T20:26:02.797Z,8.00
2023-05-12T20:28:29.800Z,5.73
2023-05-12T20:30:56.959Z,4.50
2023-05-12T20:33:24.216Z,8.93
2023-05-12T20:35:51.108Z,5.37
2023-05-12T20:38:18.060Z,4.67
2023-05-12T20:40:45.264Z,4.53
2023-05-12T20:43:14.435Z,4.97
2023-05-12T20:45:41.674Z,6.37
2023-05-12T20:48:09.253Z,4.47
2023-05-12T20:50:36.318Z,3.47
2023-05-12T20:53:03.185Z,4.43
2023-05-12T20:55:32.277Z,6.20
2023-05-12T20:57:59.701Z,7.83
2023-05-12T21:00:26.574Z,5.37
2023-05-12T21:02:53.834Z,5.97
2023-05-12T21:05:21.159Z,4.03
2023-05-12T21:07:48.325Z,4.27
2023-05-12T21:10:15.301Z,5.53
2023-05-12T21:12:42.276Z,6.50
2023-05-12T21:15:10.467Z,7.87
2023-05-12T21:17:39.459Z,3.87
2023-05-12T21:20:08.918Z,8.27
2023-05-12T21:22:37.017Z,4.80
2023-05-12T21:25:05.187Z,7.50
2023-05-12T21:27:32.146Z,7.30
2023-05-12T21:29:59.266Z,4.80
2023-05-12T21:32:26.103Z,7.23
2023-05-12T21:34:53.697Z,5.83
2023-05-12T21:37:20.574Z,5.10
2023-05-12T21:39:47.369Z,5.57
2023-05-12T21:42:14.394Z,4.83
2023-05-12T21:44:42.454Z,7.33
2023-05-12T21:47:10.056Z,4.93
2023-05-12T21:49:37.060Z,4.77
2023-05-12T21:52:04.340Z,5.27
2023-05-12T21:54:34.495Z,4.73
2023-05-12T21:57:02.192Z,5.50
2023-05-12T21:59:29.395Z,7.80
2023-05-12T22:01:56.963Z,5.00
2023-05-12T22:04:23.999Z,5.13
2023-05-12T22:06:51.058Z,6.10
2023-05-12T22:09:18.509Z,7.10
2023-05-12T22:11:45.451Z,6.23
2023-05-12T22:14:12.334Z,4.33
2023-05-12T22:16:42.214Z,14.60
2023-05-12T22:19:10.437Z,5.80
2023-05-12T22:21:37.484Z,5.43
2023-05-12T22:24:04.595Z,7.53
2023-05-12T22:26:31.593Z,6.80
2023-05-12T22:28:58.885Z,5.80
2023-05-12T22:31:25.819Z,5.17
2023-05-12T22:33:52.702Z,9.30
2023-05-12T22:36:19.588Z,11.93
2023-05-12T22:38:46.491Z,8.63
2023-05-12T22:41:13.280Z,9.30
2023-05-12T22:43:40.447Z,9.90
2023-05-12T22:46:09.658Z,6.83
2023-05-12T22:48:39.375Z,7.37
2023-05-12T22:51:07.084Z,6.43
2023-05-12T22:53:36.908Z,8.40
2023-05-12T22:56:04.201Z,6.53
2023-05-12T22:58:31.480Z,9.30
2023-05-12T23:00:58.700Z,8.77
2023-05-12T23:03:25.712Z,7.97
2023-05-12T23:05:52.753Z,10.63
2023-05-12T23:08:19.705Z,8.63
2023-05-12T23:10:46.554Z,5.93
2023-05-12T23:13:13.391Z,5.23
2023-05-12T23:15:40.776Z,6.27
2023-05-12T23:18:07.786Z,9.17
2023-05-12T23:20:35.079Z,7.60
2023-05-12T23:23:02.081Z,7.93
2023-05-12T23:25:29.072Z,8.17
2023-05-12T23:27:55.917Z,6.13
2023-05-12T23:30:23.200Z,6.50
2023-05-12T23:32:50.593Z,10.63
2023-05-12T23:35:17.654Z,10.30
2023-05-12T23:37:44.697Z,5.93
2023-05-12T23:40:12.536Z,8.53
2023-05-12T23:42:40.213Z,7.53
2023-05-12T23:45:08.061Z,6.70
2023-05-12T23:47:35.513Z,8.40
2023-05-12T23:50:06.182Z,7.17
2023-05-12T23:52:33.063Z,6.30
2023-05-12T23:55:00.819Z,6.07
2023-05-12T23:57:27.867Z,9.37
2023-05-12T23:59:54.768Z,5.53
